Time;durP1;ratioP1;P1;durP2;ratioP2;P2;SDS_P1;SDS_P2;PMS_P1;PMS_P2;Temp;Humidity;BMP_temperature;BMP_pressure;BME280_temperature;BME280_humidity;BME280_pressure;Samples;Min_cycle;Max_cycle;Signal;HPM_P1;HPM_P2
2021/04/27 00:00:22;;;;;;;8.13;2.47;;;3.40;76.10;;;;;;5044048;28;19913;-52
2021/04/27 00:02:47;;;;;;;6.85;2.33;;;3.40;76.40;;;;;;5063008;28;20488;-51
2021/04/27 00:05:16;;;;;;;6.15;3.58;;;3.30;76.50;;;;;;5061853;28;20124;-54
2021/04/27 00:07:42;;;;;;;4.40;2.60;;;3.30;77.00;;;;;;5062392;28;20037;-50
2021/04/27 00:10:10;;;;;;;4.45;2.45;;;3.30;76.30;;;;;;5062595;28;20086;-52
2021/04/27 00:12:36;;;;;;;6.35;2.75;;;3.30;76.00;;;;;;5062386;28;20082;-50
2021/04/27 00:15:05;;;;;;;8.40;2.80;;;3.30;76.10;;;;;;5053457;28;20036;-50
2021/04/27 00:17:31;;;;;;;3.78;2.22;;;3.30;76.60;;;;;;5046584;28;20033;-50
2021/04/27 00:19:56;;;;;;;4.22;2.20;;;3.30;75.60;;;;;;5029017;28;20095;-51
2021/04/27 00:22:22;;;;;;;10.45;2.60;;;3.20;75.90;;;;;;5028638;28;20098;-51
2021/04/27 00:24:47;;;;;;;6.05;2.60;;;3.20;76.10;;;;;;5037993;28;20115;-48
2021/04/27 00:27:13;;;;;;;;;;;3.20;76.90;;;;;;5050158;28;20105;-48
2021/04/27 00:29:38;;;;;;;3.00;1.77;;;3.20;75.70;;;;;;5049143;28;20470;-50
2021/04/27 00:32:04;;;;;;;6.47;2.88;;;3.20;76.20;;;;;;5048613;28;20260;-52
2021/04/27 00:34:30;;;;;;;;;;;3.10;76.20;;;;;;5048970;28;20150;-48
2021/04/27 00:36:55;;;;;;;7.55;2.42;;;3.10;76.60;;;;;;5049699;28;19916;-53
2021/04/27 00:39:21;;;;;;;;;;;3.10;76.90;;;;;;5049071;28;20408;-55
2021/04/27 00:41:47;;;;;;;3.35;1.92;;;3.10;76.80;;;;;;5048583;28;19917;-56
2021/04/27 00:44:12;;;;;;;5.05;2.33;;;3.00;77.40;;;;;;5048943;28;20791;-55
2021/04/27 00:46:38;;;;;;;5.82;2.25;;;3.00;76.90;;;;;;5048036;28;20515;-54
2021/04/27 00:49:04;;;;;;;3.38;2.10;;;3.00;78.80;;;;;;5048036;28;20064;-53
2021/04/27 00:51:32;;;;;;;6.97;2.10;;;3.00;78.10;;;;;;5048830;28;20044;-51
2021/04/27 00:53:57;;;;;;;6.85;2.55;;;3.00;77.40;;;;;;5043970;28;20449;-55
2021/04/27 00:56:23;;;;;;;3.25;1.90;;;3.00;76.30;;;;;;5043529;28;20053;-51
2021/04/27 00:58:49;;;;;;;;;;;3.00;78.10;;;;;;5049133;28;20040;-53
2021/04/27 01:01:14;;;;;;;12.73;3.22;;;2.80;79.50;;;;;;5047944;28;20047;-50
2021/04/27 01:03:40;;;;;;;3.10;1.83;;;2.70;79.50;;;;;;5047074;28;20040;-53
2021/04/27 01:06:08;;;;;;;8.30;2.33;;;2.70;79.90;;;;;;5047662;28;20045;-53
2021/04/27 01:08:45;;;;;;;5.50;2.22;;;2.70;78.60;;;;;;5048739;28;20091;-52
2021/04/27 01:11:22;;;;;;;5.18;1.80;;;2.70;80.00;;;;;;5048240;28;20048;-52
2021/04/27 01:14:22;;;;;;;6.75;1.95;;;2.60;80.60;;;;;;5048034;28;20412;-51
2021/04/27 01:16:57;;;;;;;5.13;2.17;;;2.50;81.80;;;;;;5047656;28;20124;-53
2021/04/27 01:19:39;;;;;;;3.10;1.95;;;2.50;81.10;;;;;;5047628;28;20033;-48
2021/04/27 01:22:09;;;;;;;3.97;2.20;;;2.50;80.30;;;;;;5048592;28;20064;-48
2021/04/27 01:24:57;;;;;;;6.00;2.08;;;2.50;79.60;;;;;;5047443;28;20151;-53
2021/04/27 01:27:24;;;;;;;5.15;2.13;;;2.50;80.00;;;;;;5046078;28;20033;-48
2021/04/27 01:29:51;;;;;;;6.53;2.05;;;2.50;80.40;;;;;;5048022;28;20053;-54
2021/04/27 01:32:18;;;;;;;4.38;1.92;;;2.50;78.80;;;;;;5046862;28;20094;-53
2021/04/27 01:34:46;;;;;;;5.10;1.80;;;2.50;80.90;;;;;;5047809;28;20033;-54
2021/04/27 01:37:13;;;;;;;3.70;2.50;;;2.50;80.50;;;;;;5047620;28;20048;-53
2021/04/27 01:39:40;;;;;;;5.60;2.17;;;2.50;78.80;;;;;;5047326;28;20093;-52
2021/04/27 01:42:07;;;;;;;5.97;2.03;;;2.50;78.90;;;;;;5048068;28;20048;-59
2021/04/27 01:44:34;;;;;;;2.75;1.60;;;2.50;78.60;;;;;;5047101;28;20041;-52
2021/04/27 01:47:01;;;;;;;10.50;1.73;;;2.50;78.30;;;;;;5038336;28;20160;-55
2021/04/27 01:49:27;;;;;;;5.13;1.70;;;2.50;78.00;;;;;;5047780;28;20076;-52
2021/04/27 01:51:54;;;;;;;5.60;2.00;;;2.50;78.20;;;;;;5048197;28;20087;-55
2021/04/27 01:54:24;;;;;;;4.95;1.75;;;2.50;78.20;;;;;;5047404;28;20037;-55
2021/04/27 01:56:51;;;;;;;4.78;2.33;;;2.50;78.00;;;;;;5047739;28;20138;-51
2021/04/27 01:59:16;;;;;;;2.72;1.65;;;2.50;78.40;;;;;;5047989;28;20041;-54
2021/04/27 02:01:42;;;;;;;3.55;1.73;;;2.50;79.60;;;;;;5047087;28;20048;-51
2021/04/27 02:04:08;;;;;;;5.57;1.90;;;2.40;79.10;;;;;;5046525;28;20055;-48
2021/04/27 02:06:33;;;;;;;3.15;2.10;;;2.40;80.50;;;;;;5046742;28;20037;-56
2021/04/27 02:09:09;;;;;;;;;;;2.20;82.70;;;;;;5047954;28;20520;-52
2021/04/27 02:11:40;;;;;;;6.13;1.83;;;2.00;83.70;;;;;;5047548;28;19940;-48
2021/04/27 02:14:08;;;;;;;2.53;1.65;;;2.00;82.50;;;;;;5047488;28;20128;-49
2021/04/27 02:16:52;;;;;;;3.72;2.00;;;2.10;79.60;;;;;;5043807;28;20040;-53
2021/04/27 02:19:23;;;;;;;6.88;1.92;;;2.10;80.90;;;;;;5055245;28;20094;-51
2021/04/27 02:21:53;;;;;;;7.05;2.05;;;2.10;81.10;;;;;;5057025;28;20045;-55
2021/04/27 02:24:19;;;;;;;4.63;2.35;;;2.00;82.00;;;;;;5052710;28;20045;-50
2021/04/27 02:26:46;;;;;;;4.60;2.10;;;2.00;82.40;;;;;;5062724;28;20043;-54
2021/04/27 02:29:11;;;;;;;4.18;1.83;;;1.90;82.80;;;;;;5059458;28;20163;-51
2021/04/27 02:31:39;;;;;;;5.03;2.20;;;1.80;82.90;;;;;;5066506;28;20611;-54
2021/04/27 02:34:05;;;;;;;7.55;1.63;;;1.80;82.70;;;;;;5065997;28;20040;-50
2021/04/27 02:36:34;;;;;;;6.97;2.08;;;1.80;84.30;;;;;;5061059;28;20089;-51
2021/04/27 02:39:00;;;;;;;4.70;2.10;;;1.70;85.20;;;;;;5050767;28;20037;-51
2021/04/27 02:41:33;;;;;;;3.85;2.10;;;1.70;83.30;;;;;;5066342;28;20045;-52
2021/04/27 02:43:59;;;;;;;4.40;1.88;;;1.70;84.40;;;;;;5049237;28;20045;-50
2021/04/27 02:46:25;;;;;;;4.05;1.60;;;1.70;85.20;;;;;;5045987;28;21018;-48
2021/04/27 02:48:50;;;;;;;7.10;2.22;;;1.70;82.50;;;;;;5045940;28;20041;-49
2021/04/27 02:51:16;;;;;;;4.70;2.03;;;1.70;83.30;;;;;;5046815;28;20048;-54
2021/04/27 02:53:41;;;;;;;2.58;1.42;;;1.70;84.30;;;;;;5046655;28;20056;-52
2021/04/27 02:56:07;;;;;;;2.50;1.55;;;1.70;82.50;;;;;;5046181;28;20032;-53
2021/04/27 02:58:32;;;;;;;3.97;1.80;;;1.50;85.10;;;;;;5041779;28;20041;-54
2021/04/27 03:00:58;;;;;;;3.10;1.67;;;1.60;84.00;;;;;;5038069;28;20045;-51
2021/04/27 03:03:23;;;;;;;3.60;1.92;;;1.70;82.10;;;;;;5046263;28;20072;-52
2021/04/27 03:05:49;;;;;;;8.15;2.08;;;1.70;81.60;;;;;;5046570;28;20059;-55
2021/04/27 03:08:15;;;;;;;4.03;2.10;;;1.80;81.10;;;;;;5046415;28;20508;-54
2021/04/27 03:10:41;;;;;;;3.53;2.15;;;1.60;84.20;;;;;;5046027;28;20455;-51
2021/04/27 03:13:06;;;;;;;6.78;2.83;;;1.70;82.00;;;;;;5046420;28;20401;-55
2021/04/27 03:15:32;;;;;;;6.13;1.70;;;1.70;83.60;;;;;;5045365;28;20469;-52
2021/04/27 03:17:58;;;;;;;8.73;2.10;;;1.60;82.80;;;;;;5050354;28;20044;-52
2021/04/27 03:20:23;;;;;;;10.48;1.92;;;1.50;85.10;;;;;;5065942;28;20036;-54
2021/04/27 03:22:49;;;;;;;5.25;1.70;;;1.40;84.30;;;;;;5065091;28;20101;-54
2021/04/27 03:25:15;;;;;;;3.45;2.20;;;1.40;84.70;;;;;;5053316;28;20132;-52
2021/04/27 03:27:41;;;;;;;3.95;1.92;;;1.40;83.70;;;;;;5045946;28;20750;-52
2021/04/27 03:30:09;;;;;;;2.55;1.50;;;1.50;84.30;;;;;;5046500;28;20041;-56
2021/04/27 03:32:35;;;;;;;3.13;2.22;;;1.40;84.00;;;;;;5047497;28;20045;-55
2021/04/27 03:35:00;;;;;;;6.00;1.50;;;1.50;83.80;;;;;;5047094;28;20052;-57
2021/04/27 03:37:26;;;;;;;4.68;2.13;;;1.30;85.60;;;;;;5046336;28;20049;-58
2021/04/27 03:39:52;;;;;;;3.65;1.70;;;1.20;86.30;;;;;;5046276;28;20044;-49
2021/04/27 03:42:17;;;;;;;2.60;1.85;;;1.20;86.40;;;;;;5044892;28;20503;-50
2021/04/27 03:44:43;;;;;;;3.47;1.70;;;1.20;85.00;;;;;;5043349;28;20045;-51
2021/04/27 03:47:09;;;;;;;8.57;2.13;;;1.20;86.20;;;;;;5045656;28;20041;-50
2021/04/27 03:49:35;;;;;;;3.20;1.52;;;1.10;87.50;;;;;;5046691;28;20037;-54
2021/04/27 03:52:01;;;;;;;9.90;2.22;;;1.10;86.80;;;;;;5049518;28;20041;-48
2021/04/27 03:54:26;;;;;;;7.40;2.20;;;1.10;87.80;;;;;;5049596;28;20041;-51
2021/04/27 03:56:52;;;;;;;5.32;2.45;;;1.10;87.60;;;;;;5049827;28;20041;-54
2021/04/27 03:59:18;;;;;;;2.72;1.58;;;0.90;89.10;;;;;;5049865;28;20603;-51
2021/04/27 04:01:44;;;;;;;6.00;1.85;;;1.00;86.30;;;;;;5049177;28;20087;-53
2021/04/27 04:04:10;;;;;;;3.78;1.70;;;1.00;86.20;;;;;;5049165;28;20040;-52
2021/04/27 04:06:35;;;;;;;5.97;2.22;;;1.00;88.00;;;;;;5049669;28;20087;-52
2021/04/27 04:09:05;;;;;;;5.68;2.67;;;1.10;88.40;;;;;;5048938;28;20037;-53
2021/04/27 04:11:32;;;;;;;4.22;1.98;;;1.00;88.00;;;;;;5049219;28;20044;-54
2021/04/27 04:13:58;;;;;;;3.30;1.90;;;0.90;88.70;;;;;;5049396;28;20495;-51
2021/04/27 04:16:24;;;;;;;2.90;1.67;;;0.90;87.70;;;;;;5048951;28;20055;-52
2021/04/27 04:18:49;;;;;;;6.28;2.17;;;1.10;86.40;;;;;;5048796;28;20041;-49
2021/04/27 04:21:15;;;;;;;7.38;1.92;;;0.90;88.40;;;;;;5041076;28;20124;-52
2021/04/27 04:23:41;;;;;;;8.82;2.17;;;1.00;87.30;;;;;;5046535;28;20574;-48
2021/04/27 04:26:07;;;;;;;17.05;2.15;;;1.00;87.60;;;;;;5049068;28;20132;-53
2021/04/27 04:28:33;;;;;;;4.63;2.20;;;0.80;88.00;;;;;;5048995;28;20444;-55
2021/04/27 04:30:58;;;;;;;8.05;2.80;;;0.90;87.60;;;;;;5048134;28;20029;-55
2021/04/27 04:33:24;;;;;;;23.17;3.45;;;0.90;88.70;;;;;;5048492;28;20037;-59
2021/04/27 04:35:49;;;;;;;14.27;2.72;;;1.00;88.80;;;;;;5047858;28;20036;-57
2021/04/27 04:38:17;;;;;;;10.52;2.75;;;1.10;88.00;;;;;;5048629;28;20068;-50
2021/04/27 04:40:44;;;;;;;6.57;1.77;;;1.30;86.70;;;;;;5049465;28;20048;-52
2021/04/27 04:43:09;;;;;;;7.05;1.98;;;1.70;85.20;;;;;;5048508;28;20037;-56
2021/04/27 04:45:35;;;;;;;5.28;1.90;;;2.10;83.20;;;;;;5035577;28;20378;-52
2021/04/27 04:48:00;;;;;;;16.38;2.53;;;2.80;82.00;;;;;;5028860;28;20102;-56
2021/04/27 04:50:26;;;;;;;6.60;1.80;;;3.60;78.90;;;;;;5028486;28;20053;-51
2021/04/27 04:52:51;;;;;;;;;;;4.40;75.60;;;;;;5029228;28;20382;-59
2021/04/27 04:55:17;;;;;;;4.97;1.65;;;5.90;69.50;;;;;;5028560;28;20043;-54
2021/04/27 04:57:43;;;;;;;;;;;7.10;64.00;;;;;;5029369;28;20481;-51
2021/04/27 05:00:20;;;;;;;3.65;1.63;;;7.90;58.60;;;;;;5027827;28;19967;-55
2021/04/27 05:02:45;;;;;;;2.95;1.70;;;8.80;56.80;;;;;;5039791;28;20425;-53
2021/04/27 05:05:12;;;;;;;;;;;9.50;55.80;;;;;;5048316;28;20080;-57
2021/04/27 05:07:48;;;;;;;9.02;2.30;;;10.00;53.10;;;;;;5048148;28;20367;-55
2021/04/27 05:10:16;;;;;;;4.30;1.63;;;10.20;51.30;;;;;;5049328;28;20080;-54
2021/04/27 05:12:42;;;;;;;6.60;1.50;;;10.50;51.00;;;;;;5049330;28;20049;-56
2021/04/27 05:15:09;;;;;;;5.25;1.58;;;11.00;49.30;;;;;;5047792;28;20116;-55
2021/04/27 05:17:35;;;;;;;6.35;1.98;;;11.70;49.00;;;;;;5048255;28;20730;-59
2021/04/27 05:20:01;;;;;;;;;;;11.00;48.90;;;;;;5049294;28;20045;-57
2021/04/27 05:22:27;;;;;;;6.35;1.55;;;10.90;48.70;;;;;;5046813;28;20520;-55
2021/04/27 05:24:54;;;;;;;4.75;1.60;;;11.60;47.70;;;;;;5047792;28;20041;-57
2021/04/27 05:27:20;;;;;;;9.35;2.15;;;11.00;46.70;;;;;;5048380;28;20051;-56
2021/04/27 05:29:45;;;;;;;;;;;11.20;46.90;;;;;;5049338;28;20781;-54
2021/04/27 05:32:11;;;;;;;6.65;1.40;;;11.90;47.50;;;;;;5047264;28;19925;-56
2021/04/27 05:34:37;;;;;;;;;;;12.30;44.20;;;;;;5048167;28;20056;-57
2021/04/27 05:37:03;;;;;;;8.75;1.42;;;12.60;45.40;;;;;;5048254;28;19964;-57
2021/04/27 05:39:30;;;;;;;7.65;2.00;;;12.90;42.60;;;;;;5047863;28;20048;-59
2021/04/27 05:41:55;;;;;;;3.83;1.77;;;13.30;44.10;;;;;;5048032;28;20045;-57
2021/04/27 05:44:21;;;;;;;;;;;14.30;40.40;;;;;;5048129;28;20052;-56
2021/04/27 05:46:46;;;;;;;6.13;1.38;;;14.20;38.20;;;;;;5044425;28;19924;-54
2021/04/27 05:49:12;;;;;;;;;;;14.00;40.90;;;;;;5047373;28;20043;-58
2021/04/27 05:51:38;;;;;;;4.22;1.67;;;13.20;40.10;;;;;;5047943;28;20372;-57
2021/04/27 05:54:04;;;;;;;;;;;13.70;41.30;;;;;;5046119;28;20119;-57
2021/04/27 05:56:29;;;;;;;2.97;1.42;;;13.30;39.40;;;;;;5042808;28;19993;-55
2021/04/27 05:58:55;;;;;;;;;;;12.00;42.00;;;;;;5048353;28;20033;-56
2021/04/27 06:01:21;;;;;;;4.22;1.67;;;10.60;45.70;;;;;;5045449;28;20446;-57
2021/04/27 06:03:47;;;;;;;3.67;1.58;;;9.70;45.80;;;;;;5038759;28;20057;-57
2021/04/27 06:06:12;;;;;;;;;;;9.10;47.70;;;;;;5047622;28;20032;-56
2021/04/27 06:08:38;;;;;;;5.00;1.58;;;9.50;48.10;;;;;;5047003;28;19923;-56
2021/04/27 06:11:06;;;;;;;;;;;9.90;45.70;;;;;;5047519;28;20069;-53
2021/04/27 06:13:32;;;;;;;2.08;1.38;;;10.90;45.20;;;;;;5046514;28;19916;-56
2021/04/27 06:15:58;;;;;;;3.20;1.95;;;11.40;43.70;;;;;;5040059;28;20095;-57
2021/04/27 06:18:24;;;;;;;;;;;11.40;42.70;;;;;;5043561;28;20063;-56
2021/04/27 06:20:50;;;;;;;7.93;2.10;;;10.40;44.70;;;;;;5047701;28;19948;-55
2021/04/27 06:23:15;;;;;;;;;;;9.10;47.90;;;;;;5048074;28;20136;-54
2021/04/27 06:25:41;;;;;;;2.40;1.25;;;8.80;49.60;;;;;;5046442;28;19960;-54
2021/04/27 06:28:07;;;;;;;;;;;9.90;48.20;;;;;;5044832;28;20543;-57
2021/04/27 06:30:32;;;;;;;2.83;1.55;;;10.70;44.90;;;;;;5030083;28;20023;-58
2021/04/27 06:32:58;;;;;;;;;;;12.10;43.90;;;;;;5032828;28;20097;-55
2021/04/27 06:35:27;;;;;;;3.40;1.67;;;12.50;42.20;;;;;;5056412;28;19935;-56
2021/04/27 06:37:53;;;;;;;2.80;1.40;;;13.60;41.40;;;;;;5054345;28;20113;-60
2021/04/27 06:40:19;;;;;;;;;;;12.40;40.40;;;;;;5039337;28;20029;-55
2021/04/27 06:42:45;;;;;;;5.25;1.30;;;11.30;43.00;;;;;;5047033;28;20000;-52
2021/04/27 06:45:12;;;;;;;4.22;1.77;;;11.50;42.70;;;;;;5046268;28;20051;-53
2021/04/27 06:47:38;;;;;;;6.15;2.00;;;11.40;43.00;;;;;;5046677;28;20124;-55
2021/04/27 06:50:05;;;;;;;4.93;1.77;;;10.20;44.70;;;;;;5046825;28;20515;-56
2021/04/27 06:52:31;;;;;;;5.13;1.70;;;9.70;45.70;;;;;;5047306;28;20033;-58
2021/04/27 06:54:56;;;;;;;;;;;10.10;47.80;;;;;;5046746;28;20037;-57
2021/04/27 06:57:22;;;;;;;4.75;1.60;;;10.70;43.60;;;;;;5046561;28;19924;-52
2021/04/27 06:59:47;;;;;;;;;;;11.10;45.30;;;;;;5043709;28;20044;-53
2021/04/27 07:02:13;;;;;;;4.13;1.60;;;11.10;43.70;;;;;;5031589;28;19928;-54
2021/04/27 07:04:39;;;;;;;;;;;11.30;43.10;;;;;;5026888;28;20128;-57
2021/04/27 07:07:05;;;;;;;5.85;1.50;;;11.20;43.70;;;;;;5027302;28;19964;-56
2021/04/27 07:09:31;;;;;;;6.15;1.50;;;10.60;43.80;;;;;;5027178;28;20124;-55
2021/04/27 07:11:57;;;;;;;;;;;10.80;46.10;;;;;;5027310;28;20034;-56
2021/04/27 07:14:23;;;;;;;5.22;1.80;;;9.80;45.80;;;;;;5026213;28;19940;-56
2021/04/27 07:16:49;;;;;;;8.07;2.13;;;9.60;47.70;;;;;;5045669;28;20393;-55
2021/04/27 07:19:15;;;;;;;4.97;1.70;;;9.20;48.20;;;;;;5046366;28;20045;-51
2021/04/27 07:21:41;;;;;;;;;;;8.70;48.00;;;;;;5046958;28;20052;-55
2021/04/27 07:24:07;;;;;;;5.85;2.00;;;8.90;51.00;;;;;;5045843;28;19956;-54
2021/04/27 07:26:33;;;;;;;8.25;2.00;;;9.50;49.50;;;;;;5050791;28;20049;-55
2021/04/27 07:28:59;;;;;;;;;;;9.40;48.90;;;;;;5050796;28;20453;-52
2021/04/27 07:31:24;;;;;;;6.38;2.33;;;9.40;50.60;;;;;;5049496;28;19917;-52
2021/04/27 07:33:50;;;;;;;;;;;9.80;48.70;;;;;;5050968;28;20044;-52
2021/04/27 07:36:18;;;;;;;8.60;2.08;;;9.80;48.30;;;;;;5050322;28;19955;-57
2021/04/27 07:38:44;;;;;;;1.98;1.30;;;9.30;49.60;;;;;;5050574;28;20079;-55
2021/04/27 07:41:10;;;;;;;11.82;2.50;;;8.90;48.90;;;;;;5050254;28;20047;-55
2021/04/27 07:43:35;;;;;;;;;;;9.60;49.40;;;;;;5050301;28;20053;-53
2021/04/27 07:46:01;;;;;;;13.50;1.77;;;10.10;48.20;;;;;;5049241;28;19917;-53
2021/04/27 07:48:27;;;;;;;;;;;10.40;45.70;;;;;;5051664;28;20037;-54
2021/04/27 07:50:52;;;;;;;9.55;1.88;;;10.40;46.30;;;;;;5050849;28;19923;-56
2021/04/27 07:53:18;;;;;;;;;;;11.20;44.80;;;;;;5050110;28;20053;-56
2021/04/27 07:55:44;;;;;;;9.35;2.60;;;12.70;41.10;;;;;;5049751;28;20057;-53
2021/04/27 07:58:10;;;;;;;4.40;1.70;;;14.50;42.20;;;;;;5029643;28;20041;-51
2021/04/27 08:00:35;;;;;;;;;;;15.20;37.30;;;;;;5029625;28;20033;-54
2021/04/27 08:03:01;;;;;;;3.97;2.58;;;15.50;35.00;;;;;;5029778;28;20324;-56
2021/04/27 08:05:27;;;;;;;8.45;2.83;;;16.20;34.80;;;;;;5029129;28;20043;-53
2021/04/27 08:07:53;;;;;;;4.50;1.95;;;16.40;32.40;;;;;;5029882;28;20048;-51
2021/04/27 08:10:18;;;;;;;5.00;3.17;;;15.70;32.00;;;;;;5030331;28;20128;-54
2021/04/27 08:12:50;;;;;;;4.88;2.78;;;16.80;33.60;;;;;;5030221;28;20048;-57
2021/04/27 08:15:21;;;;;;;5.55;1.80;;;18.20;32.00;;;;;;5035849;28;20033;-55
2021/04/27 08:17:47;;;;;;;9.25;1.55;;;18.30;30.20;;;;;;5049142;28;20099;-56
2021/04/27 08:20:14;;;;;;;5.15;1.58;;;19.20;30.60;;;;;;5049158;28;20045;-57
2021/04/27 08:22:41;;;;;;;5.10;2.50;;;19.00;28.30;;;;;;5048944;28;20544;-57
2021/04/27 08:25:07;;;;;;;4.90;2.38;;;19.50;28.90;;;;;;5047060;28;20045;-56
2021/04/27 08:27:33;;;;;;;7.53;1.73;;;20.10;29.60;;;;;;5040896;28;20130;-57
2021/04/27 08:29:59;;;;;;;4.63;1.67;;;20.70;28.70;;;;;;5029489;28;20464;-56
2021/04/27 08:32:25;;;;;;;3.80;1.58;;;19.50;27.90;;;;;;5029604;28;20038;-56
2021/04/27 08:34:51;;;;;;;2.63;1.50;;;19.70;27.50;;;;;;5027971;28;20749;-52
2021/04/27 08:37:16;;;;;;;2.50;1.65;;;18.10;27.60;;;;;;5037897;28;20033;-55
2021/04/27 08:39:42;;;;;;;6.18;2.00;;;17.50;30.40;;;;;;5048900;28;20041;-55
2021/04/27 08:42:08;;;;;;;;;;;15.80;30.50;;;;;;5048915;28;20047;-53
2021/04/27 08:44:34;;;;;;;7.65;3.63;;;13.60;35.40;;;;;;5049203;28;19926;-52
2021/04/27 08:46:59;;;;;;;;;;;13.50;37.60;;;;;;5039659;28;20489;-53
2021/04/27 08:49:25;;;;;;;5.80;2.00;;;13.40;39.90;;;;;;5052124;28;19920;-54
2021/04/27 08:51:51;;;;;;;;;;;12.80;39.30;;;;;;5067604;28;20613;-51
2021/04/27 08:54:18;;;;;;;3.53;2.03;;;11.70;39.50;;;;;;5068956;28;19917;-54
2021/04/27 08:56:44;;;;;;;12.55;2.00;;;10.40;43.20;;;;;;5061637;28;20059;-57
2021/04/27 08:59:09;;;;;;;4.40;2.35;;;10.10;44.70;;;;;;5048402;28;20631;-55
2021/04/27 09:01:35;;;;;;;;;;;9.30;45.50;;;;;;5044025;28;20145;-54
2021/04/27 09:04:02;;;;;;;5.13;1.88;;;9.20;46.90;;;;;;5044645;28;19925;-53
2021/04/27 09:06:28;;;;;;;6.43;1.88;;;9.40;46.40;;;;;;5027015;28;20060;-53
2021/04/27 09:08:53;;;;;;;;;;;9.10;46.80;;;;;;5028501;28;20042;-53
2021/04/27 09:11:46;;;;;;;5.97;2.13;;;9.00;46.70;;;;;;5028461;28;19921;-54
2021/04/27 09:14:17;;;;;;;4.68;2.10;;;8.80;47.80;;;;;;5028453;28;20037;-54
2021/04/27 09:16:54;;;;;;;4.03;2.05;;;9.00;48.50;;;;;;5045312;28;20413;-57
2021/04/27 09:19:42;;;;;;;20.13;2.58;;;9.40;49.80;;;;;;5048034;28;20120;-53
2021/04/27 09:22:09;;;;;;;7.78;3.17;;;9.40;47.60;;;;;;5048600;28;20037;-53
2021/04/27 09:24:40;;;;;;;4.32;2.08;;;9.20;47.90;;;;;;5047871;28;20131;-53
2021/04/27 09:27:07;;;;;;;10.38;2.45;;;9.10;49.30;;;;;;5047992;28;20063;-52
2021/04/27 09:29:40;;;;;;;6.57;2.40;;;9.20;49.60;;;;;;5048516;28;20045;-51
2021/04/27 09:32:06;;;;;;;5.13;2.30;;;9.50;49.60;;;;;;5052584;28;20032;-56
2021/04/27 09:34:37;;;;;;;4.78;2.00;;;9.10;48.80;;;;;;5048308;28;20521;-55
2021/04/27 09:37:09;;;;;;;6.72;2.00;;;9.40;53.30;;;;;;5053290;28;20040;-51
2021/04/27 09:39:47;;;;;;;5.28;2.15;;;9.80;49.40;;;;;;5064960;28;20114;-58
2021/04/27 09:42:19;;;;;;;6.38;2.47;;;9.80;46.90;;;;;;5063943;28;20099;-53
2021/04/27 09:44:52;;;;;;;4.80;2.22;;;9.60;46.90;;;;;;5047670;28;20044;-55
2021/04/27 09:47:25;;;;;;;8.77;5.57;;;9.40;48.20;;;;;;5046569;28;20396;-53
2021/04/27 09:50:03;;;;;;;9.43;3.60;;;9.40;50.10;;;;;;5047931;28;20044;-54
2021/04/27 09:52:31;;;;;;;7.65;2.38;;;9.70;51.40;;;;;;5047792;28;20643;-56
2021/04/27 09:55:11;;;;;;;6.20;2.05;;;9.70;46.50;;;;;;5047189;28;20048;-54
2021/04/27 09:57:46;;;;;;;10.00;2.70;;;9.70;49.00;;;;;;5047438;28;20056;-52
2021/04/27 10:00:35;;;;;;;9.43;2.90;;;10.00;48.50;;;;;;5046334;28;20094;-52
2021/04/27 10:03:04;;;;;;;7.40;2.38;;;9.90;47.70;;;;;;5047636;28;20515;-50
2021/04/27 10:05:32;;;;;;;4.55;2.45;;;9.80;48.80;;;;;;5045401;28;20049;-50
2021/04/27 10:07:58;;;;;;;8.38;2.30;;;10.00;46.70;;;;;;5045669;28;20044;-50
2021/04/27 10:10:27;;;;;;;5.47;2.35;;;10.30;52.20;;;;;;5070869;28;20313;-54
2021/04/27 10:12:53;;;;;;;8.23;2.38;;;10.70;49.40;;;;;;5066060;28;20086;-54
2021/04/27 10:15:40;;;;;;;6.00;2.60;;;10.90;47.20;;;;;;5044472;28;20481;-53
2021/04/27 10:18:08;;;;;;;5.10;2.95;;;11.00;44.60;;;;;;5034514;28;20071;-51
2021/04/27 10:20:35;;;;;;;6.63;3.50;;;11.00;45.80;;;;;;5046196;28;20033;-53
2021/04/27 10:23:03;;;;;;;;;;;11.10;47.40;;;;;;5043825;28;20049;-54
2021/04/27 10:25:30;;;;;;;6.38;2.13;;;11.20;46.50;;;;;;5042904;28;19989;-56
2021/04/27 10:28:05;;;;;;;5.45;2.22;;;11.10;44.90;;;;;;5047583;28;20037;-51
2021/04/27 10:30:39;;;;;;;9.82;2.22;;;10.70;47.30;;;;;;5051980;28;20037;-54
2021/04/27 10:33:04;;;;;;;6.43;2.80;;;10.40;46.10;;;;;;5042644;28;20090;-52
2021/04/27 10:35:34;;;;;;;;;;;10.20;50.30;;;;;;5041989;28;20072;-52
2021/04/27 10:38:08;;;;;;;8.18;2.70;;;10.00;49.30;;;;;;5042654;28;19925;-53
2021/04/27 10:41:03;;;;;;;9.50;2.80;;;10.00;48.20;;;;;;5047051;28;20091;-56
2021/04/27 10:43:33;;;;;;;5.70;2.78;;;9.70;46.70;;;;;;5035803;28;20042;-54
2021/04/27 10:46:22;;;;;;;6.60;2.75;;;9.70;47.80;;;;;;5038369;28;20123;-55
2021/04/27 10:48:48;;;;;;;9.10;2.38;;;9.50;47.00;;;;;;5025044;28;20135;-49
2021/04/27 10:51:20;;;;;;;5.53;2.58;;;9.40;47.60;;;;;;5051940;28;20036;-50
2021/04/27 10:54:11;;;;;;;7.03;2.60;;;9.50;47.50;;;;;;5058025;28;20176;-50
2021/04/27 10:56:36;;;;;;;4.93;2.20;;;9.80;48.00;;;;;;5049407;28;20052;-55
2021/04/27 10:59:06;;;;;;;;;;;9.80;48.90;;;;;;5054161;28;20079;-56
2021/04/27 11:01:31;;;;;;;7.80;2.30;;;9.70;46.70;;;;;;5045366;28;20384;-56
2021/04/27 11:03:57;;;;;;;;;;;9.80;49.10;;;;;;5045779;28;20037;-55
2021/04/27 11:06:23;;;;;;;6.57;2.97;;;9.90;47.10;;;;;;5045494;28;20439;-56
2021/04/27 11:08:56;;;;;;;;;;;9.90;46.40;;;;;;5047124;28;20508;-49
2021/04/27 11:11:30;;;;;;;6.35;2.60;;;9.80;45.50;;;;;;5046001;28;19965;-50
2021/04/27 11:14:11;;;;;;;5.57;2.55;;;9.90;46.40;;;;;;5049235;28;20056;-52
2021/04/27 11:16:38;;;;;;;7.60;2.50;;;10.10;50.10;;;;;;5040259;28;20048;-54
2021/04/27 11:19:19;;;;;;;5.07;2.13;;;10.20;47.10;;;;;;5025525;28;20053;-53
2021/04/27 11:21:50;;;;;;;8.35;2.95;;;10.20;46.70;;;;;;5026909;28;20132;-51
2021/04/27 11:24:37;;;;;;;11.05;2.58;;;10.20;48.00;;;;;;5043252;28;20047;-50
2021/04/27 11:27:03;;;;;;;11.25;2.47;;;10.00;46.80;;;;;;5038599;28;20056;-54
2021/04/27 11:29:30;;;;;;;;;;;9.90;46.20;;;;;;5046618;28;20484;-51
2021/04/27 11:32:11;;;;;;;13.95;2.72;;;10.00;46.40;;;;;;5045076;28;19917;-54
2021/04/27 11:34:50;;;;;;;7.43;2.33;;;9.90;46.50;;;;;;5046448;28;20053;-56
2021/04/27 11:37:30;;;;;;;7.05;2.70;;;10.10;46.60;;;;;;5045296;28;20041;-51
2021/04/27 11:39:58;;;;;;;5.90;2.67;;;10.30;48.80;;;;;;5045832;28;20091;-54
2021/04/27 11:42:30;;;;;;;3.75;2.10;;;10.70;47.40;;;;;;5045557;28;20036;-52
2021/04/27 11:45:05;;;;;;;6.28;2.72;;;10.60;47.50;;;;;;5038140;28;20040;-55
2021/04/27 11:47:33;;;;;;;10.55;2.40;;;10.60;46.00;;;;;;5044993;28;20033;-54
2021/04/27 11:50:05;;;;;;;4.63;2.00;;;10.40;43.10;;;;;;5045651;28;20048;-53
2021/04/27 11:52:44;;;;;;;5.40;2.40;;;10.50;46.70;;;;;;5046101;28;20040;-55
2021/04/27 11:55:27;;;;;;;3.25;1.90;;;10.40;44.40;;;;;;5045597;28;20040;-55
2021/04/27 11:57:55;;;;;;;5.13;2.58;;;10.30;45.60;;;;;;5046058;28;20052;-54
2021/04/27 12:00:29;;;;;;;5.45;2.55;;;10.50;46.20;;;;;;5044950;28;20049;-57
2021/04/27 12:02:56;;;;;;;12.07;2.50;;;10.60;45.60;;;;;;5046587;28;20057;-49
2021/04/27 12:05:22;;;;;;;9.45;2.78;;;10.50;46.90;;;;;;5045443;28;20405;-52
2021/04/27 12:07:47;;;;;;;;;;;10.20;46.30;;;;;;5045493;28;20140;-53
2021/04/27 12:10:13;;;;;;;9.63;2.35;;;10.30;47.30;;;;;;5046012;28;19939;-49
2021/04/27 12:12:44;;;;;;;;;;;10.30;49.60;;;;;;5049669;28;20138;-55
2021/04/27 12:15:10;;;;;;;6.88;2.55;;;10.60;47.90;;;;;;5049272;28;19917;-55
2021/04/27 12:17:36;;;;;;;;;;;10.90;47.00;;;;;;5044318;28;20048;-56
2021/04/27 12:20:17;;;;;;;6.00;3.90;;;11.10;47.30;;;;;;5057603;28;19917;-51
2021/04/27 12:22:51;;;;;;;6.75;3.40;;;11.40;48.30;;;;;;5056322;28;20623;-55
2021/04/27 12:25:19;;;;;;;9.07;2.75;;;11.50;47.90;;;;;;5055136;28;20072;-54
2021/04/27 12:27:46;;;;;;;12.57;2.85;;;11.60;45.60;;;;;;5058175;28;20936;-57
2021/04/27 12:30:16;;;;;;;5.25;2.35;;;11.50;45.50;;;;;;5069207;28;20127;-54
2021/04/27 12:32:48;;;;;;;6.28;2.70;;;11.10;45.50;;;;;;5069701;28;20047;-52
2021/04/27 12:35:23;;;;;;;6.35;2.67;;;10.90;46.60;;;;;;5061783;28;20044;-58
2021/04/27 12:38:11;;;;;;;7.97;2.58;;;10.80;47.00;;;;;;5060636;28;20044;-53
2021/04/27 12:40:41;;;;;;;6.30;2.10;;;10.80;45.00;;;;;;5069603;28;20052;-55
2021/04/27 12:43:09;;;;;;;7.03;2.22;;;10.70;46.30;;;;;;5058517;28;20056;-53
2021/04/27 12:45:59;;;;;;;4.40;2.53;;;10.80;46.60;;;;;;5047938;28;20037;-49
2021/04/27 12:48:29;;;;;;;5.30;2.30;;;10.80;47.50;;;;;;5048737;28;20451;-57
2021/04/27 12:51:05;;;;;;;7.13;2.63;;;11.10;47.60;;;;;;5045160;28;20071;-50
2021/04/27 12:53:39;;;;;;;4.70;2.50;;;11.00;47.60;;;;;;5050783;28;20036;-54
2021/04/27 12:56:10;;;;;;;9.07;2.58;;;10.90;45.50;;;;;;5055745;28;20045;-54
2021/04/27 12:58:35;;;;;;;7.55;2.25;;;10.90;47.10;;;;;;5057874;28;20500;-52
2021/04/27 13:01:03;;;;;;;;;;;10.80;47.10;;;;;;5061932;28;20507;-52
2021/04/27 13:03:45;;;;;;;3.78;2.88;;;10.70;46.40;;;;;;5069128;28;19927;-55
2021/04/27 13:06:25;;;;;;;6.97;2.60;;;10.70;45.90;;;;;;5068575;28;20072;-52
2021/04/27 13:09:04;;;;;;;6.82;2.28;;;10.80;46.10;;;;;;5068501;28;20178;-54
2021/04/27 13:11:29;;;;;;;5.10;2.33;;;10.90;47.30;;;;;;5068759;28;20041;-54